Latest Weather Observations for St Lawrence

IDQ60801

Issued at 5:32 pm EST Friday 4 September 2015 (issued every 30 minutes, with the page automatically refreshed every 10 minutes)

About weather observations | Map of weather stations | Latest weather observations for QLD | Other Formats
Station Details ID: 033210 Name: ST LAWRENCE Lat: -22.35 Lon: 149.52 Height: 9.19 m
Data from the previous 72 hours. | See also: Recent months at St Lawrence
Date/Time
EST
Temp
°C
App
Temp
°C
Dew
Point
Rel
Hum
%
Delta-T
°C
Wind Press
QNH
hPa
Press
MSL
hPa
Rain
since 9 am
mm
Dir
 
Spd
km/h
Gust
km/h
Spd
kts
Gust
kts
04/05:30pm 22.0 19.9 12.3 54 5.5 NNE 15 20 8 11 1016.4 1016.4 0.0
04/05:00pm 23.2 20.6 11.9 49 6.4 NE 17 20 9 11 1015.9 1015.9 0.0
04/04:30pm 24.1 20.7 11.4 45 7.1 NE 20 28 11 15 1015.5 1015.5 0.0
04/04:00pm 25.5 22.1 9.3 36 8.8 NNE 17 26 9 14 1015.2 1015.2 0.0
04/03:30pm 25.8 22.3 8.8 34 9.2 NNE 17 24 9 13 1015.1 1015.1 0.0
04/03:00pm 25.6 21.9 8.1 33 9.4 NE 17 26 9 14 1015.2 1015.2 0.0
04/02:30pm 27.7 23.6 2.0 19 12.5 SSW 13 20 7 11 1015.4 1015.4 0.0
04/02:00pm 27.7 23.4 3.4 21 12.1 SSE 15 22 8 12 1015.5 1015.5 0.0
04/01:30pm 26.8 23.6 3.3 22 11.6 ESE 9 17 5 9 1016.0 1016.0 0.0
04/01:00pm 26.4 22.8 3.0 22 11.5 SSE 11 22 6 12 1016.6 1016.6 0.0
04/12:30pm 26.0 22.8 3.3 23 11.2 SE 9 24 5 13 1017.1 1017.1 0.0
04/12:00pm 25.2 21.5 4.3 26 10.4 S 13 20 7 11 1017.8 1017.8 0.0
04/11:30am 24.6 20.1 4.4 27 10.1 SSE 17 28 9 15 1018.5 1018.5 0.0
04/11:00am 24.5 20.1 4.8 28 9.8 SSE 17 28 9 15 1019.1 1019.1 0.0
04/10:30am 23.5 19.0 4.0 28 9.6 S 17 26 9 14 1019.5 1019.5 0.0
04/10:00am 22.8 18.9 5.3 32 8.7 S 15 32 8 17 1019.8 1019.8 0.0
04/09:30am 21.7 16.9 4.7 33 8.3 S 19 33 10 18 1020.0 1020.0 0.0
04/09:00am 21.1 16.1 4.6 34 8.0 S 20 35 11 19 1019.9 1019.9 0.0
04/08:30am 20.4 15.6 4.8 36 7.6 S 19 32 10 17 1020.0 1020.0 0.0
04/08:00am 19.0 15.3 4.7 39 6.9 S 13 20 7 11 1019.8 1019.8 0.0
04/07:30am 16.6 14.1 3.6 42 6.0 SSW 6 9 3 5 1019.7 1019.7 0.0
04/07:00am 15.3 13.1 3.5 45 5.4 SSE 4 7 2 4 1019.4 1019.4 0.0
04/06:30am 13.7 10.4 2.3 46 5.0 SSW 9 13 5 7 1018.8 1018.8 0.0
04/06:00am 14.8 11.8 2.0 42 5.6 SSE 7 11 4 6 1018.5 1018.5 0.0
04/05:30am 14.0 10.6 1.6 43 5.4 SSW 9 15 5 8 1018.0 1018.0 0.0
04/05:00am 12.9 9.6 2.5 49 4.5 SSW 9 11 5 6 1017.7 1017.7 0.0
04/04:30am 11.4 8.5 2.4 54 3.9 SW 7 9 4 5 1017.5 1017.5 0.0
04/04:00am 11.7 9.5 5.3 65 2.9 SW 6 7 3 4 1017.2 1017.2 0.0
04/03:30am 13.3 10.4 2.5 48 4.7 S 7 9 4 5 1016.8 1016.8 0.0
04/03:00am 13.3 10.6 2.8 49 4.6 S 6 9 3 5 1016.7 1016.7 0.0
04/02:30am 13.4 12.0 3.5 51 4.4 CALM 0 0 0 0 1016.8 1016.8 0.0
04/02:00am 13.8 12.8 5.4 57 3.9 CALM 0 0 0 0 1017.0 1017.0 0.0
04/01:30am 15.0 12.2 2.2 42 5.7 SW 6 9 3 5 1017.1 1017.1 0.0
04/01:00am 14.3 13.0 4.0 50 4.7 CALM 0 0 0 0 1017.1 1017.1 0.0
04/12:30am 14.6 13.2 3.4 47 5.1 CALM 0 0 0 0 1017.3 1017.3 0.0
04/12:00am 17.5 14.0 1.5 34 7.1 SW 9 11 5 6 1017.1 1017.1 0.0
 
Date/Time
EST
Temp
°C
App
Temp
°C
Dew
Point
Rel
Hum
%
Delta-T
°C
Wind Press
QNH
hPa
Press
MSL
hPa
Rain
since 9 am
mm
Dir
 
Spd
km/h
Gust
km/h
Spd
kts
Gust
kts
03/11:30pm 16.2 12.7 1.1 36 6.6 SSW 9 11 5 6 1017.1 1017.1 0.0
03/11:00pm 15.8 12.9 2.6 41 5.9 SW 7 9 4 5 1017.1 1017.1 0.0
03/10:30pm 16.5 14.9 4.5 45 5.6 WSW 2 6 1 3 1017.1 1017.1 0.0
03/10:00pm 17.7 15.2 4.6 42 6.2 NE 7 9 4 5 1016.8 1016.8 0.0
03/09:30pm 22.5 18.2 -4.5 16 11.2 SSW 9 13 5 7 1016.5 1016.5 0.0
03/09:00pm 22.1 18.4 -3.3 18 10.7 SW 7 13 4 7 1016.2 1016.2 0.0
03/08:30pm 23.7 19.1 -4.4 15 11.8 SSW 11 17 6 9 1016.1 1016.1 0.0
03/08:00pm 22.5 18.1 -5.4 15 11.3 SSW 9 11 5 6 1015.9 1015.9 0.0
03/07:30pm 23.9 19.5 -6.2 13 12.2 S 9 13 5 7 1015.3 1015.3 0.0
03/07:00pm 25.9 20.9 -8.0 10 13.5 SSW 11 17 6 9 1014.8 1014.8 0.0
03/06:30pm 27.4 22.3 -9.7 8 14.6 SW 11 20 6 11 1014.2 1014.2 0.0
03/06:00pm 28.3 23.0 -7.6 9 14.8 SW 13 22 7 12 1013.5 1013.5 0.0
03/05:30pm 30.4 25.1 -7.5 8 15.9 WSW 13 24 7 13 1012.8 1012.8 0.0
03/05:00pm 31.7 24.4 -6.6 8 16.5 W 24 39 13 21 1012.5 1012.5 0.0
03/04:30pm 32.4 24.9 -4.5 9 16.6 W 26 37 14 20 1012.3 1012.3 0.0
03/04:00pm 33.0 26.9 -2.6 10 16.6 WSW 20 37 11 20 1012.0 1012.0 0.0
03/03:30pm 33.1 26.7 1.0 13 15.9 WNW 24 37 13 20 1011.8 1011.8 0.0
03/03:00pm 33.1 26.3 1.0 13 15.9 WNW 26 41 14 22 1011.8 1011.8 0.0
03/02:30pm 29.4 28.6 16.2 44 8.2 E 15 24 8 13 1012.0 1012.0 0.0
03/02:00pm 29.6 30.0 19.0 53 6.9 NNE 15 28 8 15 1012.4 1012.4 0.0
03/01:30pm 29.8 28.0 14.4 39 9.3 NNE 17 26 9 14 1012.9 1012.9 0.0
03/01:00pm 28.5 28.9 18.9 56 6.2 NNE 15 20 8 11 1013.3 1013.3 0.0
03/12:30pm 31.7 27.5 9.8 26 12.4 WNW 22 33 12 18 1013.6 1013.6 0.0
03/12:00pm 30.8 28.5 13.1 34 10.5 W 17 24 9 13 1014.4 1014.4 0.0
03/11:30am 30.5 27.4 13.3 35 10.3 W 22 37 12 20 1014.9 1014.9 0.0
03/11:00am 29.2 27.6 15.0 42 8.7 WNW 17 28 9 15 1015.7 1015.7 0.0
03/10:30am 29.3 27.7 15.1 42 8.7 W 17 28 9 15 1016.2 1016.2 0.0
03/10:00am 27.6 25.8 15.9 49 7.2 WNW 20 28 11 15 1016.7 1016.7 0.0
03/09:30am 27.4 25.1 16.7 52 6.7 WNW 24 33 13 18 1016.7 1016.7 0.0
03/09:00am 26.9 24.8 17.1 55 6.1 WNW 24 37 13 20 1016.8 1016.8 0.0
03/08:30am 25.4 24.8 17.6 62 4.9 NW 17 26 9 14 1016.9 1016.9 0.0
03/08:00am 24.2 25.6 17.7 67 4.1 NNW 7 15 4 8 1016.8 1016.8 0.0
03/07:30am 23.9 25.4 18.1 70 3.6 N 7 9 4 5 1016.6 1016.6 0.0
03/07:00am 22.6 24.4 18.2 76 2.7 NNE 6 11 3 6 1016.3 1016.3 0.0
03/06:30am 21.2 24.2 18.4 84 1.7 CALM 0 0 0 0 1016.1 1016.1 0.0
03/06:00am 20.9 22.8 18.5 86 1.5 SSW 6 9 3 5 1015.7 1015.7 0.0
03/05:30am 20.0 21.9 17.6 86 1.5 SW 4 6 2 3 1014.9 1014.9 0.0
03/05:00am 20.2 22.6 17.0 82 1.9 CALM 0 0 0 0 1014.2 1014.2 0.0
03/04:30am 21.6 23.2 17.8 79 2.4 W 6 7 3 4 1014.1 1014.1 0.0
03/04:00am 22.1 23.6 17.5 75 2.8 WNW 6 7 3 4 1013.7 1013.7 0.0
03/03:30am 22.7 22.6 17.8 74 3.0 N 15 24 8 13 1013.3 1013.3 0.0
03/03:00am 22.8 22.9 18.3 76 2.8 N 15 20 8 11 1013.3 1013.3 0.0
03/02:30am 23.1 22.4 18.6 76 2.8 N 20 30 11 16 1013.3 1013.3 0.0
03/02:00am 23.1 22.5 18.8 77 2.7 N 20 26 11 14 1013.4 1013.4 0.0
03/01:30am 22.9 22.8 19.5 81 2.2 N 19 24 10 13 1013.5 1013.5 0.0
03/01:00am 22.8 22.3 20.0 84 1.8 N 22 30 12 16 1013.7 1013.7 0.0
03/12:30am 22.9 22.1 20.1 84 1.8 NNE 24 37 13 20 1013.9 1013.9 0.0
03/12:00am 22.8 21.6 20.0 84 1.8 NNE 26 43 14 23 1014.2 1014.2 0.0
 
Date/Time
EST
Temp
°C
App
Temp
°C
Dew
Point
Rel
Hum
%
Delta-T
°C
Wind Press
QNH
hPa
Press
MSL
hPa
Rain
since 9 am
mm
Dir
 
Spd
km/h
Gust
km/h
Spd
kts
Gust
kts
02/11:30pm 22.9 22.5 20.1 84 1.8 NNE 22 32 12 17 1014.7 1014.7 0.0
02/11:00pm 23.0 23.0 20.1 84 1.9 NNE 20 28 11 15 1015.2 1015.2 0.0
02/10:30pm 23.0 23.2 20.1 84 1.9 NNE 19 26 10 14 1015.4 1015.4 0.0
02/10:00pm 22.8 22.4 20.1 85 1.7 NNE 22 30 12 16 1015.4 1015.4 0.0
02/09:30pm 22.8 22.8 20.1 85 1.7 NNE 20 28 11 15 1015.5 1015.5 0.0
02/09:00pm 22.8 22.4 20.1 85 1.7 NNE 22 33 12 18 1015.3 1015.3 0.0
02/08:30pm 22.7 22.6 20.0 85 1.7 NNE 20 30 11 16 1015.5 1015.5 0.0
02/08:00pm 22.8 22.7 20.0 84 1.8 NNE 20 28 11 15 1015.4 1015.4 0.0
02/07:30pm 22.8 22.7 20.0 84 1.8 NNE 20 32 11 17 1015.1 1015.1 0.0
02/07:00pm 22.7 22.6 19.9 84 1.8 NNE 20 28 11 15 1014.9 1014.9 0.0
02/06:30pm 22.7 22.1 19.7 83 1.9 NNE 22 35 12 19 1014.4 1014.4 0.0
02/06:00pm 22.9 22.9 20.1 84 1.8 NNE 20 30 11 16 1014.5 1014.5 0.0
02/05:30pm 23.1 22.5 19.7 81 2.2 NNE 22 33 12 18 1014.7 1014.7 0.0
02/05:00pm 23.5 23.3 19.8 80 2.4 NNE 20 30 11 16 1014.6 1014.6 0.0
02/04:30pm 23.9 23.2 19.4 76 2.9 NNE 22 33 12 18 1014.6 1014.6 0.0
02/04:00pm 23.9 22.4 19.4 76 2.9 NE 26 35 14 19 1014.5 1014.5 0.0
02/03:30pm 24.6 22.6 19.2 72 3.5 NNE 28 35 15 19 1014.7 1014.7 0.0
02/03:00pm 24.5 22.9 19.1 72 3.4 NE 26 35 14 19 1014.9 1014.9 0.0
02/02:30pm 24.9 23.2 19.0 69 3.8 NE 26 37 14 20 1015.1 1015.1 0.0
02/02:00pm 25.8 24.3 19.4 67 4.1 NE 26 37 14 20 1015.5 1015.5 0.0
02/01:30pm 25.0 22.9 18.9 69 3.9 NNE 28 41 15 22 1016.0 1016.0 0.0
02/01:00pm 25.0 23.6 18.7 68 4.0 NE 24 35 13 19 1016.5 1016.5 0.0
02/12:30pm 25.6 24.4 19.3 68 4.0 NE 24 33 13 18 1017.1 1017.1 0.0
02/12:00pm 26.5 25.8 19.6 66 4.5 NE 22 32 12 17 1017.6 1017.6 0.0
02/11:30am 25.9 24.4 18.6 64 4.6 NNE 24 35 13 19 1018.0 1018.0 0.0
02/11:00am 26.1 25.6 19.0 65 4.5 NNE 20 32 11 17 1018.4 1018.4 0.0
02/10:30am 25.6 24.4 18.3 64 4.6 NE 22 30 12 16 1018.9 1018.9 0.0
02/10:00am 24.3 23.5 18.5 70 3.7 NE 20 30 11 16 1019.3 1019.3 0.0
02/09:30am 24.1 23.9 18.5 71 3.5 NNE 17 24 9 13 1019.4 1019.4 0.0
02/09:00am 23.0 23.5 18.3 75 2.9 NE 13 19 7 10 1019.3 1019.3 0.0
02/08:30am 22.4 23.5 18.0 76 2.7 NE 9 13 5 7 1019.2 1019.2 0.0
02/08:00am 22.0 24.5 18.2 79 2.4 ENE 2 7 1 4 1018.9 1018.9 0.0
02/07:30am 20.3 22.9 17.5 84 1.7 CALM 0 0 0 0 1018.7 1018.7 0.0
02/07:00am 19.1 21.5 17.1 88 1.2 CALM 0 0 0 0 1018.5 1018.5 0.0
02/06:30am 18.5 20.4 16.7 89 1.1 WSW 2 7 1 4 1018.2 1018.2 0.0
02/06:00am 18.6 20.9 16.8 89 1.1 CALM 0 0 0 0 1017.8 1017.8 0.0
02/05:30am 18.7 19.8 16.7 88 1.2 WSW 6 9 3 5 1017.4 1017.4 0.0
02/05:00am 19.1 21.4 16.7 86 1.4 CALM 0 0 0 0 1017.0 1017.0 0.0
02/04:30am 19.5 21.5 16.9 85 1.6 SSW 2 6 1 3 1016.8 1016.8 0.0
02/04:00am 19.1 21.0 16.7 86 1.4 SSW 2 7 1 4 1016.9 1016.9 0.0
02/03:30am 19.0 21.2 16.6 86 1.4 CALM 0 0 0 0 1016.8 1016.8 0.0
02/03:00am 19.0 20.5 16.6 86 1.4 SW 4 7 2 4 1017.0 1017.0 0.0
02/02:30am 19.0 20.2 16.8 87 1.3 WSW 6 7 3 4 1017.0 1017.0 0.0
02/02:00am 19.0 21.2 16.4 85 1.6 CALM 0 0 0 0 1017.0 1017.0 0.0
02/01:30am 18.9 21.1 16.5 86 1.4 CALM 0 0 0 0 1017.0 1017.0 0.0
02/01:00am 19.0 20.8 16.4 85 1.6 WSW 2 6 1 3 1017.2 1017.2 0.0
02/12:30am 19.4 20.2 16.4 83 1.8 W 7 9 4 5 1017.2 1017.2 0.0
02/12:00am 20.9 21.5 16.7 77 2.5 NNE 9 13 5 7 1017.3 1017.3 0.0
 
Date/Time
EST
Temp
°C
App
Temp
°C
Dew
Point
Rel
Hum
%
Delta-T
°C
Wind Press
QNH
hPa
Press
MSL
hPa
Rain
since 9 am
mm
Dir
 
Spd
km/h
Gust
km/h
Spd
kts
Gust
kts
01/11:30pm 20.9 21.0 16.5 76 2.7 NE 11 13 6 7 1017.3 1017.3 0.0
01/11:00pm 20.8 21.2 16.4 76 2.7 NE 9 15 5 8 1017.2 1017.2 0.0
01/10:30pm 20.7 20.7 16.3 76 2.6 NE 11 13 6 7 1017.1 1017.1 0.0
01/10:00pm 20.3 20.6 16.1 77 2.5 NE 9 11 5 6 1017.0 1017.0 0.0
01/09:30pm 20.0 20.5 15.6 76 2.6 ENE 7 11 4 6 1016.9 1016.9 0.0
01/09:00pm 19.8 20.5 16.1 79 2.2 NE 7 9 4 5 1016.8 1016.8 0.0
01/08:30pm 19.8 20.2 16.3 80 2.1 NNE 9 13 5 7 1016.4 1016.4 0.0
01/08:00pm 19.9 20.4 16.5 81 2.0 NNE 9 13 5 7 1016.2 1016.2 0.0
01/07:30pm 20.1 20.6 16.5 80 2.2 NNE 9 13 5 7 1016.0 1016.0 0.0
01/07:00pm 20.1 20.1 16.3 79 2.3 NNE 11 15 6 8 1015.6 1015.6 0.0
01/06:30pm 20.4 19.9 16.0 76 2.6 NNE 13 19 7 10 1015.4 1015.4 0.0
01/06:00pm 20.7 19.1 16.1 75 2.8 NNE 19 26 10 14 1015.1 1015.1 0.0

Other Formats:

Comma delimited format used in spreadsheet applications
http://www.bom.gov.au/fwo/IDQ60801/IDQ60801.95369.axf

JavaScript Object Notation format (JSON) in row-major order
http://www.bom.gov.au/fwo/IDQ60801/IDQ60801.95369.json